Time;durP1;ratioP1;P1;durP2;ratioP2;P2;SDS_P1;SDS_P2;PMS_P1;PMS_P2;Temp;Humidity;BMP_temperature;BMP_pressure;BME280_temperature;BME280_humidity;BME280_pressure;Samples;Min_cycle;Max_cycle;Signal;HPM_P1;HPM_P2
2023/12/18 00:00:38;;;;;;;31.30;19.48;;;7.30;99.90;;;;;;4939581;29;20043;-74
2023/12/18 00:03:04;;;;;;;41.47;21.67;;;7.30;99.90;;;;;;4939188;29;20050;-74
2023/12/18 00:05:30;;;;;;;37.70;20.88;;;7.30;99.90;;;;;;4939451;29;20591;-70
2023/12/18 00:07:55;;;;;;;34.90;20.17;;;7.30;99.90;;;;;;4939157;29;20134;-70
2023/12/18 00:10:21;;;;;;;39.83;20.88;;;7.30;99.90;;;;;;4923313;29;20499;-71
2023/12/18 00:12:47;;;;;;;38.97;21.08;;;7.30;99.90;;;;;;4939047;29;20538;-71
2023/12/18 00:15:13;;;;;;;36.63;21.67;;;7.30;99.90;;;;;;4939104;29;20047;-70
2023/12/18 00:17:39;;;;;;;37.50;21.23;;;7.30;99.90;;;;;;4939008;29;20054;-70
2023/12/18 00:20:05;;;;;;;39.15;21.30;;;7.20;99.90;;;;;;4907200;29;20500;-71
2023/12/18 00:22:31;;;;;;;39.13;21.98;;;7.30;99.90;;;;;;4938809;29;20054;-70
2023/12/18 00:24:56;;;;;;;36.67;21.77;;;7.20;99.90;;;;;;4938915;29;20039;-71
2023/12/18 00:27:22;;;;;;;36.53;21.67;;;7.20;99.90;;;;;;4938864;29;20043;-70
2023/12/18 00:29:48;;;;;;;40.30;21.90;;;7.20;99.90;;;;;;4938778;29;20082;-71
2023/12/18 00:32:14;;;;;;;37.20;21.98;;;7.20;99.90;;;;;;4938771;29;20050;-70
2023/12/18 00:34:40;;;;;;;37.40;22.05;;;7.30;99.90;;;;;;4938637;29;20095;-71
2023/12/18 00:37:06;;;;;;;36.45;21.83;;;7.30;99.90;;;;;;4938609;29;20133;-70
2023/12/18 00:39:32;;;;;;;34.28;21.10;;;7.30;99.90;;;;;;4938852;29;20538;-71
2023/12/18 00:41:58;;;;;;;37.22;22.38;;;7.30;99.90;;;;;;4938494;29;20047;-70
2023/12/18 00:44:24;;;;;;;37.83;21.45;;;7.30;99.90;;;;;;4938441;29;20094;-71
2023/12/18 00:46:49;;;;;;;37.22;22.10;;;7.30;99.90;;;;;;4938342;29;20086;-71
2023/12/18 00:49:15;;;;;;;37.35;22.42;;;7.30;99.90;;;;;;4922563;29;20448;-70
2023/12/18 00:51:41;;;;;;;35.08;20.33;;;7.30;99.90;;;;;;4922124;29;20515;-70
2023/12/18 00:54:08;;;;;;;38.97;22.60;;;7.40;99.90;;;;;;4922183;29;20043;-70
2023/12/18 00:56:33;;;;;;;40.63;21.70;;;7.30;99.90;;;;;;4938066;29;20058;-71
2023/12/18 00:58:59;;;;;;;37.08;22.15;;;7.30;99.90;;;;;;4922317;29;20043;-70
2023/12/18 01:01:25;;;;;;;35.97;23.35;;;7.30;99.90;;;;;;4938099;29;20074;-70
2023/12/18 01:03:51;;;;;;;35.03;20.83;;;7.30;99.90;;;;;;4938055;29;20594;-70
2023/12/18 01:06:17;;;;;;;38.42;23.05;;;7.30;99.90;;;;;;4922172;29;20047;-70
2023/12/18 01:08:42;;;;;;;39.90;22.58;;;7.30;99.90;;;;;;4890910;29;20039;-70
2023/12/18 01:11:08;;;;;;;38.47;22.25;;;7.30;99.90;;;;;;4937973;29;20035;-70
2023/12/18 01:13:34;;;;;;;36.67;21.48;;;7.30;99.90;;;;;;4937968;29;20106;-70
2023/12/18 01:15:59;;;;;;;37.63;22.88;;;7.30;99.90;;;;;;4922226;29;20039;-74
2023/12/18 01:18:25;;;;;;;38.53;21.95;;;7.30;99.90;;;;;;4937768;29;20059;-74
2023/12/18 01:20:51;;;;;;;40.58;22.75;;;7.30;99.90;;;;;;4922236;29;20097;-74
2023/12/18 01:23:17;;;;;;;40.78;22.90;;;7.30;99.90;;;;;;4922051;29;20043;-74
2023/12/18 01:25:42;;;;;;;40.72;23.77;;;7.30;99.90;;;;;;4937738;29;20065;-75
2023/12/18 01:28:08;;;;;;;40.60;24.17;;;7.30;99.90;;;;;;4937727;29;20412;-75
2023/12/18 01:30:34;;;;;;;39.28;23.00;;;7.30;99.90;;;;;;4937795;29;20112;-74
2023/12/18 01:32:59;;;;;;;41.50;23.98;;;7.30;99.90;;;;;;4937407;29;20122;-74
2023/12/18 01:35:25;;;;;;;37.60;23.17;;;7.30;99.90;;;;;;4922010;29;20043;-74
2023/12/18 01:37:51;;;;;;;35.50;23.45;;;7.30;99.90;;;;;;4937621;29;20427;-74
2023/12/18 01:40:17;;;;;;;41.40;22.92;;;7.30;99.90;;;;;;4937646;29;20503;-75
2023/12/18 01:42:46;;;;;;;37.90;23.52;;;7.30;99.90;;;;;;4921694;29;20492;-74
2023/12/18 01:45:13;;;;;;;37.20;24.00;;;7.30;99.90;;;;;;4937391;29;20047;-74
2023/12/18 01:47:40;;;;;;;39.65;23.92;;;7.30;99.90;;;;;;4937451;29;20051;-74
2023/12/18 01:50:06;;;;;;;38.92;23.75;;;7.30;99.90;;;;;;4937544;29;20122;-74
2023/12/18 01:52:33;;;;;;;41.55;23.42;;;7.30;99.90;;;;;;4937470;29;20134;-74
2023/12/18 01:55:00;;;;;;;39.75;23.27;;;7.30;99.90;;;;;;4921516;29;20043;-74
2023/12/18 01:57:27;;;;;;;40.75;22.42;;;7.30;99.90;;;;;;4937466;29;20083;-74
2023/12/18 01:59:53;;;;;;;36.78;23.35;;;7.30;99.90;;;;;;4937461;29;20043;-74
2023/12/18 02:02:19;;;;;;;40.33;24.15;;;7.30;99.90;;;;;;4921743;29;20492;-74
2023/12/18 02:04:45;;;;;;;42.88;24.38;;;7.30;99.90;;;;;;4940691;29;20051;-74
2023/12/18 02:07:12;;;;;;;40.95;24.33;;;7.30;99.90;;;;;;4941455;29;20047;-75
2023/12/18 02:09:38;;;;;;;43.97;23.15;;;7.30;99.90;;;;;;4941593;29;20050;-74
2023/12/18 02:12:04;;;;;;;36.47;22.38;;;7.30;99.90;;;;;;4941147;29;20036;-75
2023/12/18 02:14:30;;;;;;;38.30;23.33;;;7.30;99.90;;;;;;4925195;29;20133;-74
2023/12/18 02:16:56;;;;;;;39.10;22.85;;;7.40;99.90;;;;;;4941135;29;20130;-75
2023/12/18 02:19:26;;;;;;;40.65;23.20;;;7.30;99.90;;;;;;4941041;29;20122;-74
2023/12/18 02:21:55;;;;;;;37.17;23.00;;;7.30;99.90;;;;;;4941171;29;20047;-74
2023/12/18 02:24:21;;;;;;;36.22;22.13;;;7.30;99.90;;;;;;4941447;29;20047;-70
2023/12/18 02:26:47;;;;;;;37.22;23.23;;;7.30;99.90;;;;;;4940986;29;20050;-70
2023/12/18 02:29:13;;;;;;;42.88;25.38;;;7.30;99.90;;;;;;4956908;29;20098;-71
2023/12/18 02:31:39;;;;;;;39.67;24.55;;;7.30;99.90;;;;;;4941324;29;20436;-71
2023/12/18 02:34:05;;;;;;;42.45;24.75;;;7.30;99.90;;;;;;4941201;29;20046;-71
2023/12/18 02:36:31;;;;;;;43.45;25.45;;;7.30;99.90;;;;;;4940865;29;20070;-70
2023/12/18 02:38:57;;;;;;;37.53;23.55;;;7.40;99.90;;;;;;4940801;29;20106;-69
2023/12/18 02:41:23;;;;;;;40.10;25.05;;;7.30;99.90;;;;;;4940712;29;20051;-70
2023/12/18 02:43:49;;;;;;;38.17;25.50;;;7.40;99.90;;;;;;4940979;29;20538;-70
2023/12/18 02:46:15;;;;;;;40.55;25.60;;;7.30;99.90;;;;;;4940888;29;20054;-70
2023/12/18 02:48:40;;;;;;;40.60;24.92;;;7.30;99.90;;;;;;4924762;29;20039;-69
2023/12/18 02:51:06;;;;;;;40.00;25.65;;;7.30;99.90;;;;;;4940833;29;20039;-70
2023/12/18 02:53:33;;;;;;;42.53;26.58;;;7.40;99.90;;;;;;4925059;29;20043;-70
2023/12/18 02:55:58;;;;;;;42.05;26.05;;;7.30;99.90;;;;;;4940458;29;20047;-69
2023/12/18 02:58:24;;;;;;;39.22;26.10;;;7.30;99.90;;;;;;4940388;29;20047;-69
2023/12/18 03:00:50;;;;;;;41.50;26.77;;;7.40;99.90;;;;;;4940525;29;20046;-69
2023/12/18 03:03:16;;;;;;;41.85;26.77;;;7.30;99.90;;;;;;4940360;29;20134;-69
2023/12/18 03:05:42;;;;;;;39.63;25.98;;;7.40;99.90;;;;;;4940284;29;20058;-70
2023/12/18 03:08:08;;;;;;;41.72;26.95;;;7.40;99.90;;;;;;4940247;29;20408;-69
2023/12/18 03:10:33;;;;;;;41.55;26.88;;;7.40;99.90;;;;;;4940459;29;20495;-69
2023/12/18 03:12:59;;;;;;;41.10;23.27;;;7.40;99.90;;;;;;4924695;29;20078;-69
2023/12/18 03:15:26;;;;;;;44.38;25.55;;;7.40;99.90;;;;;;4939144;29;20112;-69
2023/12/18 03:17:51;;;;;;;37.83;25.33;;;7.30;99.90;;;;;;4925065;29;20059;-69
2023/12/18 03:20:17;;;;;;;42.83;26.65;;;7.30;99.90;;;;;;4924033;29;20140;-69
2023/12/18 03:22:43;;;;;;;41.10;27.17;;;7.40;99.90;;;;;;4940009;29;20043;-69
2023/12/18 03:25:09;;;;;;;42.55;26.55;;;7.40;99.90;;;;;;4908531;29;20050;-69
2023/12/18 03:27:35;;;;;;;44.45;27.10;;;7.30;99.90;;;;;;4924193;29;20051;-70
2023/12/18 03:30:00;;;;;;;40.25;26.10;;;7.40;99.90;;;;;;4939896;29;20492;-69
2023/12/18 03:32:26;;;;;;;43.03;26.63;;;7.30;99.90;;;;;;4939735;29;20488;-70
2023/12/18 03:34:52;;;;;;;43.15;27.00;;;7.30;99.90;;;;;;4940173;29;20065;-70
2023/12/18 03:37:18;;;;;;;43.30;27.10;;;7.30;99.90;;;;;;4939755;29;20058;-69
2023/12/18 03:39:44;;;;;;;42.05;26.15;;;7.30;99.90;;;;;;4923962;29;20153;-69
2023/12/18 03:42:09;;;;;;;42.60;26.63;;;7.40;99.90;;;;;;4939786;29;20090;-69
2023/12/18 03:44:35;;;;;;;38.80;24.88;;;7.40;99.90;;;;;;4939533;29;20126;-70
2023/12/18 03:47:02;;;;;;;44.58;26.48;;;7.30;99.90;;;;;;4923794;29;20051;-69
2023/12/18 03:49:28;;;;;;;46.47;26.88;;;7.40;99.90;;;;;;4923704;29;20039;-70
2023/12/18 03:51:54;;;;;;;42.60;26.48;;;7.40;99.90;;;;;;4923761;29;20038;-70
2023/12/18 03:54:19;;;;;;;42.58;25.80;;;7.40;99.90;;;;;;4924010;29;20042;-69
2023/12/18 03:56:45;;;;;;;39.75;26.40;;;7.40;99.90;;;;;;4923605;29;20043;-70
2023/12/18 03:59:11;;;;;;;36.45;25.15;;;7.40;99.90;;;;;;4939580;29;20051;-70
2023/12/18 04:01:37;;;;;;;39.17;26.08;;;7.40;99.90;;;;;;4923679;29;20142;-70
2023/12/18 04:04:03;;;;;;;33.25;22.45;;;7.50;99.90;;;;;;4939503;29;20043;-70
2023/12/18 04:06:29;;;;;;;39.15;25.48;;;7.40;99.90;;;;;;4939416;29;20043;-69
2023/12/18 04:08:55;;;;;;;39.42;25.85;;;7.50;99.90;;;;;;4939168;29;20106;-69
2023/12/18 04:11:23;;;;;;;37.50;25.58;;;7.50;99.90;;;;;;4939141;29;20043;-69
2023/12/18 04:13:50;;;;;;;37.22;23.85;;;7.50;99.90;;;;;;4939085;29;20099;-69
2023/12/18 04:16:16;;;;;;;41.90;25.67;;;7.40;99.90;;;;;;4938969;29;20082;-70
2023/12/18 04:18:42;;;;;;;39.15;24.73;;;7.50;99.90;;;;;;4939018;29;20093;-69
2023/12/18 04:21:08;;;;;;;41.55;25.70;;;7.50;99.90;;;;;;4939312;29;20093;-69
2023/12/18 04:23:34;;;;;;;35.95;24.88;;;7.50;99.90;;;;;;4938838;29;20079;-69
2023/12/18 04:26:00;;;;;;;36.10;24.90;;;7.50;99.90;;;;;;4922784;28;20130;-70
2023/12/18 04:28:25;;;;;;;38.45;24.27;;;7.50;99.90;;;;;;4891711;29;20046;-70
2023/12/18 04:30:51;;;;;;;39.33;25.10;;;7.50;99.90;;;;;;4907253;29;20134;-70
2023/12/18 04:33:17;;;;;;;37.50;23.83;;;7.50;99.90;;;;;;4923088;29;20047;-70
2023/12/18 04:35:43;;;;;;;38.33;23.42;;;7.50;99.90;;;;;;4923011;29;20043;-70
2023/12/18 04:38:09;;;;;;;38.50;23.05;;;7.50;99.90;;;;;;4922780;29;20054;-70
2023/12/18 04:40:34;;;;;;;36.42;22.58;;;7.50;99.90;;;;;;4907231;29;20121;-70
2023/12/18 04:43:00;;;;;;;36.58;23.63;;;7.50;99.90;;;;;;4922853;29;20058;-70
2023/12/18 04:45:26;;;;;;;37.08;23.20;;;7.50;99.90;;;;;;4954867;29;20054;-70
2023/12/18 04:47:51;;;;;;;35.28;22.55;;;7.60;99.90;;;;;;4938322;29;20082;-70
2023/12/18 04:50:17;;;;;;;34.58;22.48;;;7.50;99.90;;;;;;4938378;29;20187;-70
2023/12/18 04:52:43;;;;;;;37.50;23.17;;;7.50;99.90;;;;;;4922527;29;20042;-70
2023/12/18 04:55:09;;;;;;;36.85;23.63;;;7.50;99.90;;;;;;4922831;29;20043;-70
2023/12/18 04:57:36;;;;;;;38.20;23.40;;;7.50;99.90;;;;;;4938534;29;20400;-70
2023/12/18 05:00:02;;;;;;;35.67;22.00;;;7.60;99.90;;;;;;4938260;29;20054;-70
2023/12/18 05:02:28;;;;;;;35.70;22.27;;;7.60;99.90;;;;;;4954437;29;20126;-70
2023/12/18 05:04:54;;;;;;;34.22;22.73;;;7.60;99.90;;;;;;4922428;29;20150;-70
2023/12/18 05:07:19;;;;;;;35.50;22.98;;;7.60;99.90;;;;;;4922454;29;20036;-70
2023/12/18 05:09:45;;;;;;;37.80;23.10;;;7.60;99.90;;;;;;4922502;29;20126;-69
2023/12/18 05:12:11;;;;;;;36.72;23.60;;;7.60;99.90;;;;;;4922440;29;20062;-70
2023/12/18 05:14:37;;;;;;;33.92;20.95;;;7.50;99.90;;;;;;4922081;29;20043;-70
2023/12/18 05:17:02;;;;;;;35.00;23.42;;;7.60;99.90;;;;;;4938200;29;20047;-70
2023/12/18 05:19:28;;;;;;;36.95;23.00;;;7.60;99.90;;;;;;4937782;29;20055;-70
2023/12/18 05:21:54;;;;;;;33.05;22.83;;;7.50;99.90;;;;;;4937858;29;20130;-70
2023/12/18 05:24:20;;;;;;;34.10;22.55;;;7.50;99.90;;;;;;4938084;29;20043;-70
2023/12/18 05:26:46;;;;;;;34.60;22.02;;;7.50;99.90;;;;;;4922056;29;20083;-70
2023/12/18 05:29:11;;;;;;;35.05;22.48;;;7.50;99.90;;;;;;4922203;29;20039;-69
2023/12/18 05:31:37;;;;;;;33.15;22.48;;;7.50;99.90;;;;;;4921952;29;20098;-70
2023/12/18 05:34:03;;;;;;;34.45;23.80;;;7.50;99.90;;;;;;4921834;29;20164;-69
2023/12/18 05:36:30;;;;;;;34.95;23.50;;;7.50;99.90;;;;;;4937834;29;20114;-69
2023/12/18 05:38:56;;;;;;;37.40;23.73;;;7.50;99.90;;;;;;4936973;29;20118;-70
2023/12/18 05:41:22;;;;;;;37.20;24.05;;;7.50;99.90;;;;;;4921887;29;20047;-70
2023/12/18 05:43:47;;;;;;;36.67;24.58;;;7.40;99.90;;;;;;4953591;29;20039;-70
2023/12/18 05:46:14;;;;;;;36.20;24.20;;;7.40;99.90;;;;;;4921705;29;20039;-70
2023/12/18 05:48:39;;;;;;;34.03;24.08;;;7.40;99.90;;;;;;4921846;29;20035;-69
2023/12/18 05:51:05;;;;;;;35.05;22.42;;;7.40;99.90;;;;;;4921533;29;20047;-69
2023/12/18 05:53:31;;;;;;;38.20;23.80;;;7.40;99.90;;;;;;4921902;29;20045;-69
2023/12/18 05:55:57;;;;;;;37.15;24.85;;;7.40;99.90;;;;;;4937499;29;20122;-74
2023/12/18 05:58:22;;;;;;;37.15;23.30;;;7.40;99.90;;;;;;4890242;29;20134;-73
2023/12/18 06:00:48;;;;;;;31.45;21.98;;;7.40;99.90;;;;;;4921648;29;20118;-73
2023/12/18 06:03:14;;;;;;;40.92;22.95;;;7.40;99.90;;;;;;4921587;29;20078;-73
2023/12/18 06:05:39;;;;;;;38.00;22.55;;;7.50;99.90;;;;;;4921500;29;20484;-73
2023/12/18 06:08:05;;;;;;;33.13;23.48;;;7.40;99.90;;;;;;4921326;29;20105;-73
2023/12/18 06:10:31;;;;;;;35.17;23.58;;;7.40;99.90;;;;;;4937273;29;20147;-73
2023/12/18 06:12:57;;;;;;;32.47;23.75;;;7.40;99.90;;;;;;4921563;29;20043;-73
2023/12/18 06:15:23;;;;;;;35.75;24.00;;;7.40;99.90;;;;;;4921761;29;20126;-73
2023/12/18 06:17:48;;;;;;;32.83;23.27;;;7.40;99.90;;;;;;4937497;29;20045;-74
2023/12/18 06:20:14;;;;;;;38.58;23.90;;;7.40;99.90;;;;;;4921303;29;20059;-74
2023/12/18 06:22:40;;;;;;;32.25;23.65;;;7.40;99.90;;;;;;4937219;29;20090;-74
2023/12/18 06:25:06;;;;;;;36.65;22.75;;;7.40;99.90;;;;;;4921714;29;20046;-74
2023/12/18 06:27:32;;;;;;;37.47;23.40;;;7.40;99.90;;;;;;4937063;29;20084;-73
2023/12/18 06:29:58;;;;;;;36.10;24.38;;;7.40;99.90;;;;;;4921393;29;20578;-74
2023/12/18 06:32:23;;;;;;;35.95;24.88;;;7.40;99.90;;;;;;4921563;29;20042;-73
2023/12/18 06:34:50;;;;;;;35.45;23.48;;;7.40;99.90;;;;;;4921367;29;20122;-74
2023/12/18 06:37:16;;;;;;;36.90;22.63;;;7.40;99.90;;;;;;4921449;29;20500;-74
2023/12/18 06:39:42;;;;;;;35.58;24.27;;;7.40;99.90;;;;;;4921490;29;20101;-73
2023/12/18 06:42:08;;;;;;;32.85;23.40;;;7.40;99.90;;;;;;4921208;29;20130;-74
2023/12/18 06:44:34;;;;;;;40.13;24.80;;;7.40;99.90;;;;;;4936907;29;20194;-73
2023/12/18 06:47:00;;;;;;;36.20;24.38;;;7.40;99.90;;;;;;4905480;29;20122;-73
2023/12/18 06:49:25;;;;;;;38.58;23.88;;;7.40;99.90;;;;;;4937648;29;20047;-73
2023/12/18 06:51:51;;;;;;;39.42;25.10;;;7.40;99.90;;;;;;4940710;29;20047;-74
2023/12/18 06:54:17;;;;;;;41.25;25.75;;;7.40;99.90;;;;;;4940808;29;20122;-74
2023/12/18 06:56:43;;;;;;;36.08;24.67;;;7.40;99.90;;;;;;4924686;29;20043;-74
2023/12/18 06:59:09;;;;;;;39.55;24.77;;;7.40;99.90;;;;;;4924926;29;20390;-74
2023/12/18 07:01:35;;;;;;;38.13;26.17;;;7.40;99.90;;;;;;4956375;29;20130;-74
2023/12/18 07:04:02;;;;;;;34.80;24.33;;;7.40;99.90;;;;;;4924735;29;20051;-73
2023/12/18 07:06:28;;;;;;;36.90;25.95;;;7.40;99.90;;;;;;4924652;29;20129;-73
2023/12/18 07:08:54;;;;;;;37.78;25.23;;;7.40;99.90;;;;;;4940093;29;20126;-73
2023/12/18 07:11:20;;;;;;;40.38;25.30;;;7.40;99.90;;;;;;4924381;29;20039;-73
2023/12/18 07:13:45;;;;;;;39.40;25.20;;;7.50;99.90;;;;;;4924516;29;20039;-74
2023/12/18 07:16:22;;;;;;;37.88;25.63;;;7.50;99.90;;;;;;4940146;29;20058;-74
2023/12/18 07:18:48;;;;;;;40.10;25.83;;;7.50;99.90;;;;;;4956236;29;20061;-74
2023/12/18 07:21:14;;;;;;;38.35;27.08;;;7.50;99.90;;;;;;4940126;29;20047;-74
2023/12/18 07:23:41;;;;;;;36.95;24.80;;;7.50;99.90;;;;;;4924518;29;20399;-74
2023/12/18 07:26:11;;;;;;;38.45;25.58;;;7.50;99.90;;;;;;4940100;29;20039;-74
2023/12/18 07:28:38;;;;;;;38.88;26.42;;;7.50;99.90;;;;;;4939732;29;20550;-74
2023/12/18 07:31:03;;;;;;;37.50;26.65;;;7.50;99.90;;;;;;4939983;29;20039;-74
2023/12/18 07:33:29;;;;;;;40.72;27.63;;;7.50;99.90;;;;;;4940057;29;20043;-73
2023/12/18 07:35:55;;;;;;;43.80;27.65;;;7.40;99.90;;;;;;4924053;29;20043;-74
2023/12/18 07:38:21;;;;;;;37.83;24.85;;;7.40;99.90;;;;;;4923935;29;20070;-74
2023/12/18 07:40:47;;;;;;;38.60;25.98;;;7.40;99.90;;;;;;4939732;29;20211;-73
2023/12/18 07:43:12;;;;;;;38.95;26.33;;;7.50;99.90;;;;;;4924062;29;20043;-74
2023/12/18 07:45:38;;;;;;;40.40;26.45;;;7.50;99.90;;;;;;4939698;29;20086;-74
2023/12/18 07:48:04;;;;;;;39.80;26.98;;;7.50;99.90;;;;;;4939418;29;20050;-73
2023/12/18 07:50:30;;;;;;;42.97;27.27;;;7.40;99.90;;;;;;4923715;29;20164;-73
2023/12/18 07:52:56;;;;;;;40.67;27.50;;;7.40;99.90;;;;;;4939761;29;20051;-74
2023/12/18 07:55:21;;;;;;;38.67;26.13;;;7.50;99.90;;;;;;4931062;29;20050;-73
2023/12/18 07:57:47;;;;;;;44.53;27.08;;;7.50;99.90;;;;;;4920321;29;20047;-74
2023/12/18 08:00:13;;;;;;;38.17;27.45;;;7.50;99.90;;;;;;4904816;29;20083;-73
2023/12/18 08:02:39;;;;;;;39.53;27.15;;;7.50;99.90;;;;;;4903942;29;20130;-73
2023/12/18 08:05:05;;;;;;;38.03;26.88;;;7.50;99.90;;;;;;4935433;29;20146;-74
2023/12/18 08:07:31;;;;;;;43.83;28.13;;;7.50;99.90;;;;;;4923576;29;20051;-73
2023/12/18 08:09:57;;;;;;;43.20;27.02;;;7.60;99.90;;;;;;4923561;29;20079;-74
2023/12/18 08:12:23;;;;;;;40.10;26.13;;;7.50;99.90;;;;;;4923302;29;20036;-73
2023/12/18 08:14:48;;;;;;;40.67;27.77;;;7.60;99.90;;;;;;4923122;29;20082;-73
2023/12/18 08:17:15;;;;;;;45.78;26.90;;;7.60;99.90;;;;;;4939068;29;20047;-74
2023/12/18 08:19:47;;;;;;;42.10;27.65;;;7.60;99.90;;;;;;4938870;29;20074;-74
2023/12/18 08:22:13;;;;;;;39.50;27.63;;;7.70;99.90;;;;;;4939121;29;20043;-73
2023/12/18 08:24:39;;;;;;;46.58;27.85;;;7.60;99.90;;;;;;4939120;29;20141;-73
2023/12/18 08:27:05;;;;;;;40.15;27.35;;;7.60;99.90;;;;;;4938713;29;20186;-74
2023/12/18 08:29:31;;;;;;;39.17;26.45;;;7.70;99.90;;;;;;4954870;29;20232;-74
2023/12/18 08:31:57;;;;;;;42.92;26.83;;;7.70;99.90;;;;;;4938813;29;20114;-74
2023/12/18 08:34:24;;;;;;;38.47;26.83;;;7.70;99.90;;;;;;4938629;29;20043;-74
2023/12/18 08:36:50;;;;;;;42.53;27.70;;;7.70;99.90;;;;;;4938594;29;20051;-74
2023/12/18 08:39:15;;;;;;;38.38;27.40;;;7.70;99.90;;;;;;4938982;29;20050;-74
2023/12/18 08:41:45;;;;;;;41.35;28.13;;;7.70;99.90;;;;;;4922721;29;20087;-74
2023/12/18 08:44:11;;;;;;;39.58;26.30;;;7.70;99.90;;;;;;4923083;29;20043;-73
2023/12/18 08:46:38;;;;;;;37.30;27.58;;;7.80;99.90;;;;;;4938501;29;20106;-73
2023/12/18 08:49:04;;;;;;;43.38;27.75;;;7.70;99.90;;;;;;4938501;29;20046;-74
2023/12/18 08:51:30;;;;;;;41.95;28.38;;;7.80;99.90;;;;;;4906815;29;20495;-74
2023/12/18 08:53:56;;;;;;;38.17;27.00;;;7.80;99.90;;;;;;4938472;29;20102;-74
2023/12/18 08:56:22;;;;;;;40.38;26.95;;;7.80;99.90;;;;;;4922547;29;20039;-74
2023/12/18 08:58:49;;;;;;;41.40;26.80;;;7.80;99.90;;;;;;4938515;29;20042;-74
2023/12/18 09:01:15;;;;;;;40.55;27.70;;;7.80;99.90;;;;;;4922674;29;20047;-74
2023/12/18 09:03:41;;;;;;;43.67;27.67;;;7.80;99.90;;;;;;4938498;29;20039;-74
2023/12/18 09:06:07;;;;;;;39.78;27.08;;;7.80;99.90;;;;;;4922412;29;20051;-74
2023/12/18 09:08:39;;;;;;;37.72;25.65;;;7.80;99.90;;;;;;4938094;29;20039;-73
2023/12/18 09:11:06;;;;;;;43.88;26.27;;;7.80;99.90;;;;;;4938400;29;20097;-73
2023/12/18 09:13:36;;;;;;;40.85;26.30;;;7.90;99.90;;;;;;4953154;28;20082;-73
2023/12/18 09:16:06;;;;;;;41.15;26.80;;;7.90;99.90;;;;;;4938267;29;20393;-74
2023/12/18 09:18:32;;;;;;;41.92;27.00;;;7.90;99.90;;;;;;4934094;29;20055;-74
2023/12/18 09:20:58;;;;;;;39.80;26.63;;;7.90;99.90;;;;;;4919146;29;20052;-73
2023/12/18 09:23:25;;;;;;;39.58;27.33;;;7.90;99.90;;;;;;4903207;29;20047;-74
2023/12/18 09:25:52;;;;;;;42.05;27.08;;;7.90;99.90;;;;;;4919235;29;20051;-74
2023/12/18 09:28:18;;;;;;;38.80;23.88;;;7.90;99.90;;;;;;4903159;29;20035;-74
2023/12/18 09:30:44;;;;;;;43.67;28.17;;;7.90;99.90;;;;;;4918890;29;20086;-74
2023/12/18 09:33:10;;;;;;;42.20;29.23;;;7.90;99.90;;;;;;4934418;29;20039;-74
2023/12/18 09:35:36;;;;;;;42.28;28.42;;;7.90;99.90;;;;;;4918694;29;20050;-74
2023/12/18 09:38:02;;;;;;;43.05;28.42;;;7.90;99.90;;;;;;4902994;29;20134;-74
2023/12/18 09:40:28;;;;;;;41.72;29.35;;;8.00;99.90;;;;;;4918911;29;20505;-74
2023/12/18 09:42:54;;;;;;;42.05;29.13;;;8.00;99.90;;;;;;4902782;29;20126;-74
2023/12/18 09:45:22;;;;;;;42.92;29.92;;;7.90;99.90;;;;;;4885290;29;20130;-74
2023/12/18 09:47:49;;;;;;;43.35;29.00;;;8.00;99.90;;;;;;4918606;29;20048;-74
2023/12/18 09:50:15;;;;;;;42.65;30.40;;;8.00;99.90;;;;;;4918531;29;20044;-74
2023/12/18 09:52:49;;;;;;;41.58;28.55;;;8.00;99.90;;;;;;4918466;29;20043;-74
2023/12/18 09:55:15;;;;;;;44.83;29.70;;;8.00;99.90;;;;;;4918963;29;20399;-74
2023/12/18 09:57:42;;;;;;;41.17;28.77;;;8.00;99.90;;;;;;4918789;29;20047;-74
2023/12/18 10:00:12;;;;;;;37.63;24.00;;;8.00;99.90;;;;;;4918745;29;20044;-74
2023/12/18 10:02:41;;;;;;;44.42;30.92;;;8.00;99.90;;;;;;4918387;29;20043;-73
2023/12/18 10:05:07;;;;;;;41.50;28.25;;;8.10;99.90;;;;;;4934456;29;20039;-74
2023/12/18 10:07:33;;;;;;;42.63;30.27;;;8.10;99.90;;;;;;4934272;29;20492;-74
2023/12/18 10:09:59;;;;;;;43.22;31.23;;;8.10;99.90;;;;;;4902681;29;20039;-74
2023/12/18 10:12:25;;;;;;;44.72;30.92;;;8.10;99.90;;;;;;4918139;29;20377;-74
2023/12/18 10:14:51;;;;;;;44.70;31.48;;;8.10;99.90;;;;;;4902802;29;20505;-73
2023/12/18 10:17:18;;;;;;;46.75;29.70;;;8.10;99.90;;;;;;4902600;29;20055;-74
2023/12/18 10:19:44;;;;;;;44.42;31.70;;;8.10;99.90;;;;;;4902464;29;20066;-74
2023/12/18 10:22:10;;;;;;;46.55;31.38;;;8.10;99.90;;;;;;4918240;29;20048;-74
2023/12/18 10:24:45;;;;;;;45.75;31.00;;;8.10;99.90;;;;;;4919329;29;20054;-74
2023/12/18 10:27:11;;;;;;;47.45;32.13;;;8.10;99.90;;;;;;4921883;29;20100;-74
2023/12/18 10:29:37;;;;;;;46.10;31.35;;;8.10;99.90;;;;;;4921993;29;20122;-74
2023/12/18 10:32:03;;;;;;;46.25;31.55;;;8.20;99.90;;;;;;4921920;29;20040;-74
2023/12/18 10:34:31;;;;;;;46.22;32.40;;;8.20;99.90;;;;;;4921959;29;20444;-74
2023/12/18 10:36:57;;;;;;;49.72;32.83;;;8.20;99.90;;;;;;4921878;29;20052;-74
2023/12/18 10:39:29;;;;;;;48.10;31.65;;;8.20;99.90;;;;;;4922117;29;20385;-74
2023/12/18 10:42:03;;;;;;;43.00;28.15;;;8.20;99.90;;;;;;4921992;29;20518;-74
2023/12/18 10:44:30;;;;;;;48.15;31.30;;;8.30;99.90;;;;;;4922070;29;20110;-74
2023/12/18 10:46:58;;;;;;;44.30;27.15;;;8.20;99.90;;;;;;4921640;29;20048;-74
2023/12/18 10:49:28;;;;;;;47.00;30.65;;;8.30;99.90;;;;;;4921874;29;20040;-74
2023/12/18 10:51:56;;;;;;;42.22;29.30;;;8.20;99.90;;;;;;4905823;29;20040;-74
2023/12/18 10:54:24;;;;;;;45.85;31.80;;;8.30;99.90;;;;;;4937606;29;20043;-74
2023/12/18 10:56:51;;;;;;;45.15;30.67;;;8.30;99.90;;;;;;4921659;29;20043;-74
2023/12/18 10:59:19;;;;;;;44.67;31.48;;;8.30;99.90;;;;;;4905699;29;20082;-74
2023/12/18 11:01:46;;;;;;;48.97;31.98;;;8.30;99.90;;;;;;4937283;29;20051;-73
2023/12/18 11:04:13;;;;;;;46.50;31.90;;;8.30;99.90;;;;;;4921381;29;20051;-73
2023/12/18 11:06:40;;;;;;;45.85;31.48;;;8.30;99.90;;;;;;4921593;29;20050;-73
2023/12/18 11:09:06;;;;;;;46.58;32.33;;;8.30;99.90;;;;;;4905662;29;20043;-73
2023/12/18 11:11:34;;;;;;;51.33;34.40;;;8.30;99.90;;;;;;4905297;29;20050;-74
2023/12/18 11:14:11;;;;;;;46.47;32.20;;;8.30;99.90;;;;;;4936976;29;20050;-73
2023/12/18 11:16:44;;;;;;;47.15;31.13;;;8.30;99.90;;;;;;4921204;29;20055;-74
2023/12/18 11:19:39;;;;;;;48.25;30.85;;;8.30;99.90;;;;;;4926507;29;20416;-73
2023/12/18 11:22:06;;;;;;;41.13;28.27;;;8.30;99.90;;;;;;4921070;29;20047;-74
2023/12/18 11:24:38;;;;;;;43.95;31.50;;;8.30;99.90;;;;;;4905421;29;20047;-73
2023/12/18 11:27:08;;;;;;;48.65;31.65;;;8.30;99.90;;;;;;4936681;29;20055;-73
2023/12/18 11:30:03;;;;;;;45.63;31.27;;;8.40;99.90;;;;;;4905165;29;20050;-74
2023/12/18 11:32:45;;;;;;;43.28;29.33;;;8.40;99.90;;;;;;4889271;29;20056;-73
2023/12/18 11:35:15;;;;;;;46.53;30.50;;;8.40;99.90;;;;;;4920872;29;20295;-73
2023/12/18 11:37:45;;;;;;;46.50;30.00;;;8.40;99.90;;;;;;4919900;29;20185;-73
2023/12/18 11:40:31;;;;;;;48.13;31.02;;;8.40;99.90;;;;;;4905386;29;20128;-73
2023/12/18 11:43:01;;;;;;;43.30;29.75;;;8.40;99.90;;;;;;4907676;29;20047;-73
2023/12/18 11:45:27;;;;;;;44.90;29.77;;;8.40;99.90;;;;;;4905037;29;20051;-73
2023/12/18 11:47:57;;;;;;;46.22;29.65;;;8.50;99.90;;;;;;4920789;29;20047;-74
2023/12/18 11:50:26;;;;;;;43.40;29.55;;;8.50;99.90;;;;;;4920584;29;20098;-73
2023/12/18 11:52:59;;;;;;;45.45;29.40;;;8.50;99.90;;;;;;4905072;29;20039;-73
2023/12/18 11:55:41;;;;;;;45.85;29.10;;;8.50;99.90;;;;;;4920737;29;20551;-74
2023/12/18 11:58:08;;;;;;;48.63;29.63;;;8.50;99.90;;;;;;4936213;29;20054;-74
2023/12/18 12:00:35;;;;;;;42.53;29.63;;;8.50;99.90;;;;;;4904914;29;20496;-73
2023/12/18 12:03:01;;;;;;;40.95;28.42;;;8.50;99.90;;;;;;4904927;29;20090;-73
2023/12/18 12:05:28;;;;;;;45.60;27.25;;;8.60;99.90;;;;;;4920269;29;20047;-73
2023/12/18 12:07:54;;;;;;;47.78;29.30;;;8.60;99.90;;;;;;4904400;29;20043;-73
2023/12/18 12:10:21;;;;;;;46.03;27.63;;;8.60;99.90;;;;;;4937280;29;20040;-73
2023/12/18 12:12:57;;;;;;;43.35;27.45;;;8.60;99.90;;;;;;4920148;29;20039;-73
2023/12/18 12:15:24;;;;;;;39.78;26.42;;;8.60;99.90;;;;;;4919971;29;20043;-73
2023/12/18 12:18:06;;;;;;;40.10;24.88;;;8.60;99.90;;;;;;4904451;29;20047;-73
2023/12/18 12:20:32;;;;;;;41.42;28.65;;;8.60;99.90;;;;;;4939073;29;20059;-74
2023/12/18 12:22:58;;;;;;;48.20;28.40;;;8.60;99.90;;;;;;4923410;29;20043;-74
2023/12/18 12:25:25;;;;;;;43.05;28.05;;;8.60;99.90;;;;;;4923269;29;20094;-74
2023/12/18 12:27:51;;;;;;;38.78;27.60;;;8.60;99.90;;;;;;4923158;29;20043;-74
2023/12/18 12:30:17;;;;;;;43.42;27.52;;;8.60;99.90;;;;;;4955153;29;20046;-74
2023/12/18 12:32:44;;;;;;;40.58;26.00;;;8.60;99.90;;;;;;4923032;29;20093;-74